New Harbor, ME

43° 52' 34"N, 69° 29' 40"W, Elevation 65 ft.
Eastern Time

Hourly observations for the last 72 hours

Date Time Temperature (°F) Humi-
dity

(%)
Wind
(mph)
Pressure Rain (in) Sun
(W/m2)
ET
(in)
Air Dew 6 Hour 1 Hr 3 Hr 6 Hr Day
Alt
(in)
Sea
Level

(mb)
Max Min
8 21:00 64.3 63.1 96 WNW 1 G 5 29.88 1012.0 0.79 0 0.064
8 20:00 64.9 63.4 76.0 64.8 95 ESE 2 G 3 29.85 1010.8 0.05 0.79 0.79 0.79 5 0.064
8 19:00 65.2 63.4 94 WNW 1 G 7 29.90 1012.6 0.74 0.74 0 0.064
8 18:00 69.1 67.0 93 S 4 G 9 29.83 1010.2 0.00 84 0.061
8 17:00 70.2 67.5 91 S 3 G 9 29.86 1011.1 0.00 130 0.058
8 16:00 71.3 67.6 88 S 2 G 9 29.88 1011.9 0.00 248 0.045
8 15:00 71.6 68.5 90 SSW 2 G 10 29.89 1012.1 0.00 490 0.036
8 14:00 69.0 65.9 71.6 65.3 90 SW 2 G 8 29.91 1012.9 0.00 287 0.029
8 13:00 68.1 65.1 90 SW 3 G 9 29.93 1013.7 0.00 294 0.022
8 12:00 68.5 65.8 91 S 2 G 9 29.95 1014.2 0.00 278 0.016
8 11:00 67.9 64.5 89 SSW 5 G 11 29.97 1015.0 0.00 178 0.011
8 10:00 67.9 64.9 90 S 4 G 10 29.98 1015.1 0.00 160 0.006
8 09:00 67.0 64.3 91 SSW 4 G 13 29.99 1015.4 0.00 135 0.003
8 08:00 65.4 63.0 65.7 62.5 92 S 6 G 12 29.99 1015.7 0.00 74 0.001
8 07:00 64.9 62.8 93 S 6 G 16 30.00 1015.8 0.00 67 0.000
8 06:00 63.7 61.6 93 S 4 G 14 30.00 1016.0 0.00 33 0.000
8 05:00 62.8 61.0 94 SSW 2 G 7 30.01 1016.4 0.00 0 0.000
8 04:00 63.0 60.9 93 S 2 G 8 30.01 1016.5 0.00 0 0.000
8 03:00 63.5 61.4 93 S 3 G 11 30.02 1016.7 0.00 0 0.000
8 02:00 63.4 61.0 63.5 60.3 92 SSW 3 G 12 30.05 1017.6 0.00 0 0.000
8 01:00 63.3 61.2 93 S 5 G 10 30.06 1017.8 0.00 0 0.000
8 00:00 62.5 60.1 92 S 4 G 10 30.07 1018.3 0.00 0 0.148
7 23:00 61.1 58.8 92 S 2 G 7 30.07 1018.4 0.00 0 0.148
7 22:00 61.2 58.6 91 SSE 1 G 4 30.08 1018.8 0.00 0 0.148
7 21:00 62.0 59.0 90 S 3 G 11 30.08 1018.7 0.00 0 0.148
7 20:00 62.9 59.3 73.4 62.9 88 S 4 G 8 30.09 1019.0 0.00 12 0.147
7 19:00 64.6 60.6 87 S 4 G 8 30.10 1019.4 0.00 53 0.145
7 18:00 66.7 61.7 84 S 6 G 12 30.11 1019.7 0.00 91 0.136
7 17:00 68.3 62.9 83 S 5 G 12 30.12 1019.9 0.00 587 0.126
7 16:00 68.3 62.9 83 SSE 6 G 14 30.12 1020.1 0.00 308 0.115
7 15:00 69.9 63.8 81 SSE 5 G 10 30.13 1020.4 0.00 304 0.102
7 14:00 73.1 65.1 74.5 60.9 76 S 7 G 12 30.14 1020.6 0.00 1002 0.079
7 13:00 73.1 65.5 77 SSW 4 G 11 30.14 1020.6 0.00 960 0.058
7 12:00 72.8 65.9 79 SSW 4 G 12 30.15 1021.0 0.00 1076 0.041
7 11:00 71.3 64.5 79 S 7 G 12 30.14 1020.8 0.00 863 0.022
7 10:00 69.7 64.3 83 SSE 5 G 9 30.15 1021.0 0.00 765 0.010
7 09:00 67.2 63.5 88 SSE 2 G 5 30.16 1021.2 0.00 438 0.003
7 08:00 60.9 59.5 61.1 54.8 95 Calm 30.16 1021.4 0.00 118 0.001
7 07:00 59.0 57.9 96 Calm 30.16 1021.2 0.00 42 0.000
7 06:00 55.7 54.6 96 Calm 30.15 1021.0 0.00 21 0.000
7 05:00 55.9 54.8 96 Calm 30.13 1020.3 0.00 0 0.000
7 04:00 57.4 56.3 96 Calm 30.13 1020.5 0.00 0 0.000
7 03:00 56.9 55.8 96 Calm 30.13 1020.3 0.00 0 0.000
7 02:00 56.2 54.8 61.5 56.1 95 Calm 30.13 1020.5 0.00 0 0.000
7 01:00 56.9 55.5 95 Calm 30.13 1020.5 0.00 0 0.000
7 00:00 57.5 56.1 95 Calm 30.13 1020.3 0.00 0 0.168
6 23:00 56.1 54.4 94 S 0 G 1 30.12 1020.1 0.00 0 0.168
6 22:00 57.5 55.8 94 Calm 30.12 1020.1 0.00 0 0.168
6 21:00 58.7 56.7 93 Calm 30.11 1019.6 0.00 0 0.168
6 20:00 61.5 57.9 70.3 61.5 88 S 0 G 2 30.10 1019.4 0.00 11 0.167
6 19:00 63.8 59.2 85 S 1 G 4 30.10 1019.3 0.00 47 0.165
6 18:00 65.6 58.6 78 S 1 G 5 30.07 1018.4 0.00 70 0.156
6 17:00 68.1 60.3 76 S 4 G 9 30.07 1018.4 0.00 499 0.142
6 16:00 68.1 61.0 78 S 2 G 8 30.08 1018.5 0.00 663 0.125
6 15:00 69.0 61.9 78 SE 2 G 9 30.08 1018.7 0.00 802 0.105
6 14:00 70.0 62.1 71.6 59.7 76 ESE 2 G 4 30.08 1018.6 0.00 907 0.083
6 13:00 70.8 63.6 78 ENE 2 G 6 30.07 1018.4 0.00 956 0.061
6 12:00 70.9 63.7 78 ENE 1 G 4 30.08 1018.5 0.00 944 0.042
6 11:00 70.7 63.1 77 SE 2 G 4 30.06 1018.0 0.00 807 0.024
6 10:00 66.4 61.1 83 NE 6 G 12 30.04 1017.4 0.00 780 0.011
6 09:00 65.8 63.7 93 ENE 3 G 8 30.04 1017.3 0.00 680 0.003
6 08:00 60.5 59.6 60.6 56.2 97 NE 0 G 3 30.02 1016.8 0.00 98 0.001
6 07:00 58.6 57.8 97 NE 0 G 2 30.02 1016.6 0.00 56 0.000
6 06:00 57.8 57.0 97 N 0 G 2 29.99 1015.6 0.00 16 0.000
6 05:00 57.2 56.4 97 ENE 1 G 2 29.98 1015.2 0.00 0 0.000
6 04:00 56.8 56.0 97 Calm 29.96 1014.5 0.00 0 0.000
6 03:00 56.5 55.7 97 ENE 2 G 5 29.96 1014.6 0.00 0 0.000
6 02:00 56.8 56.0 58.3 56.6 97 ENE 2 G 5 29.96 1014.6 0.00 0 0.000
6 01:00 57.5 56.7 97 ENE 3 G 6 29.97 1014.8 0.00 0 0.000
6 00:00 57.4 56.3 96 NE 0 G 3 29.96 1014.6 0.10 0 0.032
5 23:00 57.1 56.0 96 SSW 0 G 2 29.96 1014.7 0.10 0 0.032
5 22:00 56.7 55.6 96 ENE 3 G 9 29.96 1014.6 0.10 0 0.032

Data generated by WxSolution Version 1.9.1.8, Build 2020.02.16.